sensor_id;sensor_type;location;lat;lon;timestamp;temperature;humidity
21275;DHT22;36472;52.170;20.884;2023-04-03T00:01:39;21.60;35.50
21275;DHT22;36472;52.170;20.884;2023-04-03T00:04:11;21.60;35.70
21275;DHT22;36472;52.170;20.884;2023-04-03T00:06:41;21.60;35.90
21275;DHT22;36472;52.170;20.884;2023-04-03T00:09:09;21.60;36.10
21275;DHT22;36472;52.170;20.884;2023-04-03T00:11:39;21.60;35.30
21275;DHT22;36472;52.170;20.884;2023-04-03T00:14:07;21.60;35.30
21275;DHT22;36472;52.170;20.884;2023-04-03T00:16:37;21.60;35.20
21275;DHT22;36472;52.170;20.884;2023-04-03T00:19:07;21.50;35.50
21275;DHT22;36472;52.170;20.884;2023-04-03T00:21:39;21.60;35.10
21275;DHT22;36472;52.170;20.884;2023-04-03T00:24:08;21.50;35.10
21275;DHT22;36472;52.170;20.884;2023-04-03T00:26:37;21.50;34.60
21275;DHT22;36472;52.170;20.884;2023-04-03T00:29:06;21.50;35.20
21275;DHT22;36472;52.170;20.884;2023-04-03T00:31:35;21.50;34.60
21275;DHT22;36472;52.170;20.884;2023-04-03T00:34:05;21.50;34.80
21275;DHT22;36472;52.170;20.884;2023-04-03T00:36:34;21.40;35.40
21275;DHT22;36472;52.170;20.884;2023-04-03T00:39:03;21.40;35.40
21275;DHT22;36472;52.170;20.884;2023-04-03T00:41:33;21.30;35.00
21275;DHT22;36472;52.170;20.884;2023-04-03T00:44:20;21.30;35.20
21275;DHT22;36472;52.170;20.884;2023-04-03T00:46:51;21.30;35.10
21275;DHT22;36472;52.170;20.884;2023-04-03T00:49:22;21.20;34.20
21275;DHT22;36472;52.170;20.884;2023-04-03T00:51:52;21.20;34.90
21275;DHT22;36472;52.170;20.884;2023-04-03T00:54:22;21.20;34.80
21275;DHT22;36472;52.170;20.884;2023-04-03T00:56:52;21.10;34.90
21275;DHT22;36472;52.170;20.884;2023-04-03T00:59:25;21.20;35.00
21275;DHT22;36472;52.170;20.884;2023-04-03T01:01:59;21.10;34.80
21275;DHT22;36472;52.170;20.884;2023-04-03T01:04:31;21.10;34.20
21275;DHT22;36472;52.170;20.884;2023-04-03T01:07:07;21.10;34.40
21275;DHT22;36472;52.170;20.884;2023-04-03T01:09:39;21.10;34.60
21275;DHT22;36472;52.170;20.884;2023-04-03T01:12:13;21.00;33.90
21275;DHT22;36472;52.170;20.884;2023-04-03T01:14:44;21.00;34.40
21275;DHT22;36472;52.170;20.884;2023-04-03T01:17:32;21.00;34.70
21275;DHT22;36472;52.170;20.884;2023-04-03T01:23:28;21.00;34.20
21275;DHT22;36472;52.170;20.884;2023-04-03T01:26:06;21.00;34.50
21275;DHT22;36472;52.170;20.884;2023-04-03T01:28:36;21.00;34.60
21275;DHT22;36472;52.170;20.884;2023-04-03T01:31:13;20.90;34.40
21275;DHT22;36472;52.170;20.884;2023-04-03T01:33:49;20.90;34.30
21275;DHT22;36472;52.170;20.884;2023-04-03T01:36:21;20.90;34.30
21275;DHT22;36472;52.170;20.884;2023-04-03T01:38:53;20.90;34.60
21275;DHT22;36472;52.170;20.884;2023-04-03T01:41:23;20.90;33.90
21275;DHT22;36472;52.170;20.884;2023-04-03T01:43:57;20.80;34.00
21275;DHT22;36472;52.170;20.884;2023-04-03T01:46:27;20.80;34.60
21275;DHT22;36472;52.170;20.884;2023-04-03T01:48:58;20.80;34.30
21275;DHT22;36472;52.170;20.884;2023-04-03T01:51:26;20.80;34.20
21275;DHT22;36472;52.170;20.884;2023-04-03T01:53:56;20.80;34.10
21275;DHT22;36472;52.170;20.884;2023-04-03T01:56:25;20.80;33.80
21275;DHT22;36472;52.170;20.884;2023-04-03T01:58:54;20.70;34.10
21275;DHT22;36472;52.170;20.884;2023-04-03T02:01:23;20.70;34.30
21275;DHT22;36472;52.170;20.884;2023-04-03T02:03:53;20.70;34.10
21275;DHT22;36472;52.170;20.884;2023-04-03T02:06:24;20.70;34.20
21275;DHT22;36472;52.170;20.884;2023-04-03T02:08:53;20.60;33.80
21275;DHT22;36472;52.170;20.884;2023-04-03T02:11:22;20.60;34.10
21275;DHT22;36472;52.170;20.884;2023-04-03T02:13:53;20.60;34.10
21275;DHT22;36472;52.170;20.884;2023-04-03T02:16:21;20.50;33.90
21275;DHT22;36472;52.170;20.884;2023-04-03T02:18:51;20.50;34.20
21275;DHT22;36472;52.170;20.884;2023-04-03T02:21:20;20.50;34.10
21275;DHT22;36472;52.170;20.884;2023-04-03T02:23:50;20.50;34.40
21275;DHT22;36472;52.170;20.884;2023-04-03T02:26:19;20.50;34.20
21275;DHT22;36472;52.170;20.884;2023-04-03T02:28:48;20.50;33.90
21275;DHT22;36472;52.170;20.884;2023-04-03T02:31:17;20.40;33.90
21275;DHT22;36472;52.170;20.884;2023-04-03T02:33:48;20.40;34.40
21275;DHT22;36472;52.170;20.884;2023-04-03T02:36:17;20.40;34.20
21275;DHT22;36472;52.170;20.884;2023-04-03T02:38:54;20.40;34.10
21275;DHT22;36472;52.170;20.884;2023-04-03T02:41:22;20.30;34.30
21275;DHT22;36472;52.170;20.884;2023-04-03T02:43:54;20.40;34.40
21275;DHT22;36472;52.170;20.884;2023-04-03T02:46:22;20.40;34.40
21275;DHT22;36472;52.170;20.884;2023-04-03T02:48:52;20.40;34.60
21275;DHT22;36472;52.170;20.884;2023-04-03T02:51:20;20.40;34.50
21275;DHT22;36472;52.170;20.884;2023-04-03T02:53:51;20.30;34.20
21275;DHT22;36472;52.170;20.884;2023-04-03T02:56:26;20.40;34.20
21275;DHT22;36472;52.170;20.884;2023-04-03T02:58:55;20.30;34.30
21275;DHT22;36472;52.170;20.884;2023-04-03T03:01:25;20.20;34.00
21275;DHT22;36472;52.170;20.884;2023-04-03T03:03:56;20.20;34.30
21275;DHT22;36472;52.170;20.884;2023-04-03T03:06:25;20.20;34.70
21275;DHT22;36472;52.170;20.884;2023-04-03T03:08:56;20.20;34.50
21275;DHT22;36472;52.170;20.884;2023-04-03T03:11:25;20.20;34.30
21275;DHT22;36472;52.170;20.884;2023-04-03T03:13:54;20.20;34.00
21275;DHT22;36472;52.170;20.884;2023-04-03T03:16:25;20.20;35.20
21275;DHT22;36472;52.170;20.884;2023-04-03T03:18:56;20.10;34.40
21275;DHT22;36472;52.170;20.884;2023-04-03T03:21:26;20.10;35.10
21275;DHT22;36472;52.170;20.884;2023-04-03T03:23:56;20.10;34.50
21275;DHT22;36472;52.170;20.884;2023-04-03T03:26:26;20.10;34.20
21275;DHT22;36472;52.170;20.884;2023-04-03T03:28:55;20.10;34.20
21275;DHT22;36472;52.170;20.884;2023-04-03T03:31:24;20.10;34.40
21275;DHT22;36472;52.170;20.884;2023-04-03T03:33:53;20.10;34.10
21275;DHT22;36472;52.170;20.884;2023-04-03T03:36:22;20.10;34.50
21275;DHT22;36472;52.170;20.884;2023-04-03T03:38:52;20.10;34.60
21275;DHT22;36472;52.170;20.884;2023-04-03T03:41:22;20.00;34.50
21275;DHT22;36472;52.170;20.884;2023-04-03T03:43:51;20.00;34.60
21275;DHT22;36472;52.170;20.884;2023-04-03T03:46:20;20.00;34.40
21275;DHT22;36472;52.170;20.884;2023-04-03T03:48:50;20.00;34.50
21275;DHT22;36472;52.170;20.884;2023-04-03T03:51:19;20.00;34.40
21275;DHT22;36472;52.170;20.884;2023-04-03T03:53:49;19.90;34.80
21275;DHT22;36472;52.170;20.884;2023-04-03T03:56:19;19.90;34.30
21275;DHT22;36472;52.170;20.884;2023-04-03T03:58:50;19.90;34.60
21275;DHT22;36472;52.170;20.884;2023-04-03T04:01:20;19.90;34.50
21275;DHT22;36472;52.170;20.884;2023-04-03T04:03:51;19.90;34.60
21275;DHT22;36472;52.170;20.884;2023-04-03T04:06:25;19.90;34.60
21275;DHT22;36472;52.170;20.884;2023-04-03T04:08:58;19.80;34.60
21275;DHT22;36472;52.170;20.884;2023-04-03T04:11:28;19.80;34.90
21275;DHT22;36472;52.170;20.884;2023-04-03T04:13:59;19.80;34.80
21275;DHT22;36472;52.170;20.884;2023-04-03T04:16:29;19.80;34.70
21275;DHT22;36472;52.170;20.884;2023-04-03T04:19:04;19.80;35.00
21275;DHT22;36472;52.170;20.884;2023-04-03T04:21:36;19.80;34.80
21275;DHT22;36472;52.170;20.884;2023-04-03T04:24:07;19.80;35.10
21275;DHT22;36472;52.170;20.884;2023-04-03T04:26:37;19.70;34.90
21275;DHT22;36472;52.170;20.884;2023-04-03T04:29:10;19.80;35.30
21275;DHT22;36472;52.170;20.884;2023-04-03T04:31:39;19.80;35.10
21275;DHT22;36472;52.170;20.884;2023-04-03T04:34:09;19.80;35.30
21275;DHT22;36472;52.170;20.884;2023-04-03T04:36:38;19.70;35.10
21275;DHT22;36472;52.170;20.884;2023-04-03T04:39:08;19.80;35.00
21275;DHT22;36472;52.170;20.884;2023-04-03T04:41:38;19.70;35.10
21275;DHT22;36472;52.170;20.884;2023-04-03T04:44:09;19.70;34.80
21275;DHT22;36472;52.170;20.884;2023-04-03T04:46:39;19.80;34.80
21275;DHT22;36472;52.170;20.884;2023-04-03T04:49:09;19.70;35.10
21275;DHT22;36472;52.170;20.884;2023-04-03T04:51:38;19.70;34.90
21275;DHT22;36472;52.170;20.884;2023-04-03T04:54:22;19.80;34.90
21275;DHT22;36472;52.170;20.884;2023-04-03T04:56:51;19.80;34.80
21275;DHT22;36472;52.170;20.884;2023-04-03T04:59:22;19.80;35.10
21275;DHT22;36472;52.170;20.884;2023-04-03T05:01:53;19.80;34.60
21275;DHT22;36472;52.170;20.884;2023-04-03T05:04:23;19.80;34.90
21275;DHT22;36472;52.170;20.884;2023-04-03T05:06:57;19.80;34.90
21275;DHT22;36472;52.170;20.884;2023-04-03T05:09:29;19.80;34.90
21275;DHT22;36472;52.170;20.884;2023-04-03T05:11:58;19.80;34.90
21275;DHT22;36472;52.170;20.884;2023-04-03T05:14:33;19.80;35.20
21275;DHT22;36472;52.170;20.884;2023-04-03T05:17:06;19.80;34.90
21275;DHT22;36472;52.170;20.884;2023-04-03T05:19:38;19.90;35.00
21275;DHT22;36472;52.170;20.884;2023-04-03T05:22:09;19.90;35.00
21275;DHT22;36472;52.170;20.884;2023-04-03T05:24:38;19.90;35.10
21275;DHT22;36472;52.170;20.884;2023-04-03T05:27:08;20.00;35.20
21275;DHT22;36472;52.170;20.884;2023-04-03T05:29:44;20.00;34.60
21275;DHT22;36472;52.170;20.884;2023-04-03T05:32:18;20.00;34.50
21275;DHT22;36472;52.170;20.884;2023-04-03T05:34:51;20.00;34.70
21275;DHT22;36472;52.170;20.884;2023-04-03T05:37:21;20.10;34.40
21275;DHT22;36472;52.170;20.884;2023-04-03T05:39:52;20.10;34.40
21275;DHT22;36472;52.170;20.884;2023-04-03T05:42:21;20.00;34.10
21275;DHT22;36472;52.170;20.884;2023-04-03T05:44:51;20.00;33.80
21275;DHT22;36472;52.170;20.884;2023-04-03T05:47:20;20.00;34.10
21275;DHT22;36472;52.170;20.884;2023-04-03T05:49:50;20.00;34.00
21275;DHT22;36472;52.170;20.884;2023-04-03T05:52:23;20.10;33.70
21275;DHT22;36472;52.170;20.884;2023-04-03T05:54:56;20.00;33.70
21275;DHT22;36472;52.170;20.884;2023-04-03T05:57:28;20.00;33.70
21275;DHT22;36472;52.170;20.884;2023-04-03T05:59:58;20.00;34.10
21275;DHT22;36472;52.170;20.884;2023-04-03T06:02:28;19.90;34.10
21275;DHT22;36472;52.170;20.884;2023-04-03T06:05:00;20.00;34.10
21275;DHT22;36472;52.170;20.884;2023-04-03T06:07:29;20.00;33.80
21275;DHT22;36472;52.170;20.884;2023-04-03T06:09:59;20.00;34.00
21275;DHT22;36472;52.170;20.884;2023-04-03T06:12:29;20.10;34.00
21275;DHT22;36472;52.170;20.884;2023-04-03T06:14:59;20.10;34.10
21275;DHT22;36472;52.170;20.884;2023-04-03T06:17:28;20.20;34.10
21275;DHT22;36472;52.170;20.884;2023-04-03T06:19:58;20.30;33.60
21275;DHT22;36472;52.170;20.884;2023-04-03T06:22:27;20.40;33.60
21275;DHT22;36472;52.170;20.884;2023-04-03T06:24:58;20.50;33.50
21275;DHT22;36472;52.170;20.884;2023-04-03T06:27:27;20.50;33.40
21275;DHT22;36472;52.170;20.884;2023-04-03T06:29:56;20.60;33.50
21275;DHT22;36472;52.170;20.884;2023-04-03T06:32:26;20.60;33.50
21275;DHT22;36472;52.170;20.884;2023-04-03T06:34:56;20.60;32.90
21275;DHT22;36472;52.170;20.884;2023-04-03T06:37:25;20.70;33.60
21275;DHT22;36472;52.170;20.884;2023-04-03T06:39:56;20.70;33.30
21275;DHT22;36472;52.170;20.884;2023-04-03T06:42:25;20.70;33.00
21275;DHT22;36472;52.170;20.884;2023-04-03T06:45:00;20.70;33.30
21275;DHT22;36472;52.170;20.884;2023-04-03T06:47:31;20.80;33.50
21275;DHT22;36472;52.170;20.884;2023-04-03T06:50:00;20.80;33.40
21275;DHT22;36472;52.170;20.884;2023-04-03T06:52:29;20.90;32.90
21275;DHT22;36472;52.170;20.884;2023-04-03T06:54:59;20.90;33.20
21275;DHT22;36472;52.170;20.884;2023-04-03T06:57:27;21.00;33.20
21275;DHT22;36472;52.170;20.884;2023-04-03T06:59:57;21.00;32.60
21275;DHT22;36472;52.170;20.884;2023-04-03T07:02:26;21.10;32.70
21275;DHT22;36472;52.170;20.884;2023-04-03T07:04:56;21.00;32.60
21275;DHT22;36472;52.170;20.884;2023-04-03T07:07:26;21.10;32.70
21275;DHT22;36472;52.170;20.884;2023-04-03T07:09:55;21.10;32.70
21275;DHT22;36472;52.170;20.884;2023-04-03T07:12:24;21.10;32.80
21275;DHT22;36472;52.170;20.884;2023-04-03T07:14:53;21.20;32.60
21275;DHT22;36472;52.170;20.884;2023-04-03T07:17:22;21.30;32.30
21275;DHT22;36472;52.170;20.884;2023-04-03T07:19:52;21.40;32.60
21275;DHT22;36472;52.170;20.884;2023-04-03T07:22:23;21.40;32.90
21275;DHT22;36472;52.170;20.884;2023-04-03T07:24:52;21.50;32.20
21275;DHT22;36472;52.170;20.884;2023-04-03T07:27:21;21.60;32.40
21275;DHT22;36472;52.170;20.884;2023-04-03T07:29:50;21.80;32.80
21275;DHT22;36472;52.170;20.884;2023-04-03T07:32:21;21.80;32.40
21275;DHT22;36472;52.170;20.884;2023-04-03T07:34:50;22.00;32.00
21275;DHT22;36472;52.170;20.884;2023-04-03T07:37:19;22.10;31.60
21275;DHT22;36472;52.170;20.884;2023-04-03T07:39:49;22.10;31.30
21275;DHT22;36472;52.170;20.884;2023-04-03T07:42:18;22.20;31.50
21275;DHT22;36472;52.170;20.884;2023-04-03T07:44:47;22.20;31.00
21275;DHT22;36472;52.170;20.884;2023-04-03T07:47:16;22.30;30.70
21275;DHT22;36472;52.170;20.884;2023-04-03T07:49:45;22.30;31.80
21275;DHT22;36472;52.170;20.884;2023-04-03T07:52:15;22.30;31.10
21275;DHT22;36472;52.170;20.884;2023-04-03T07:54:44;22.40;31.20
21275;DHT22;36472;52.170;20.884;2023-04-03T07:57:15;22.50;31.60
21275;DHT22;36472;52.170;20.884;2023-04-03T07:59:44;22.60;30.90
21275;DHT22;36472;52.170;20.884;2023-04-03T08:02:13;22.60;30.40
21275;DHT22;36472;52.170;20.884;2023-04-03T08:04:42;22.70;30.60
21275;DHT22;36472;52.170;20.884;2023-04-03T08:07:11;22.90;30.20
21275;DHT22;36472;52.170;20.884;2023-04-03T08:09:40;23.00;30.30
21275;DHT22;36472;52.170;20.884;2023-04-03T08:12:09;23.10;29.60
21275;DHT22;36472;52.170;20.884;2023-04-03T08:14:40;23.10;29.50
21275;DHT22;36472;52.170;20.884;2023-04-03T08:17:09;23.10;29.50
21275;DHT22;36472;52.170;20.884;2023-04-03T08:19:40;23.10;28.90
21275;DHT22;36472;52.170;20.884;2023-04-03T08:22:09;23.10;29.40
21275;DHT22;36472;52.170;20.884;2023-04-03T08:24:38;23.30;29.60
21275;DHT22;36472;52.170;20.884;2023-04-03T08:27:24;23.30;29.20
21275;DHT22;36472;52.170;20.884;2023-04-03T08:29:56;23.40;28.70
21275;DHT22;36472;52.170;20.884;2023-04-03T08:32:25;23.40;28.50
21275;DHT22;36472;52.170;20.884;2023-04-03T08:34:54;23.40;28.10
21275;DHT22;36472;52.170;20.884;2023-04-03T08:37:23;23.50;28.60
21275;DHT22;36472;52.170;20.884;2023-04-03T08:39:52;23.60;28.20
21275;DHT22;36472;52.170;20.884;2023-04-03T08:42:33;23.60;28.20
21275;DHT22;36472;52.170;20.884;2023-04-03T08:45:14;23.60;27.60
21275;DHT22;36472;52.170;20.884;2023-04-03T08:47:52;23.60;26.60
21275;DHT22;36472;52.170;20.884;2023-04-03T08:50:28;23.60;27.30
21275;DHT22;36472;52.170;20.884;2023-04-03T08:53:03;23.60;28.00
21275;DHT22;36472;52.170;20.884;2023-04-03T08:55:43;23.50;27.80
21275;DHT22;36472;52.170;20.884;2023-04-03T08:58:16;23.60;28.60
21275;DHT22;36472;52.170;20.884;2023-04-03T09:00:51;23.70;28.60
21275;DHT22;36472;52.170;20.884;2023-04-03T09:03:24;23.80;27.60
21275;DHT22;36472;52.170;20.884;2023-04-03T09:05:57;24.10;28.00
21275;DHT22;36472;52.170;20.884;2023-04-03T09:08:32;24.10;26.30
21275;DHT22;36472;52.170;20.884;2023-04-03T09:11:14;24.20;26.90
21275;DHT22;36472;52.170;20.884;2023-04-03T09:13:54;24.30;27.20
21275;DHT22;36472;52.170;20.884;2023-04-03T09:16:39;24.30;26.70
21275;DHT22;36472;52.170;20.884;2023-04-03T09:19:21;24.60;26.90
21275;DHT22;36472;52.170;20.884;2023-04-03T09:22:13;24.90;26.70
21275;DHT22;36472;52.170;20.884;2023-04-03T09:24:47;25.20;25.60
21275;DHT22;36472;52.170;20.884;2023-04-03T09:27:21;25.30;26.40
21275;DHT22;36472;52.170;20.884;2023-04-03T09:29:53;25.50;26.20
21275;DHT22;36472;52.170;20.884;2023-04-03T09:32:28;25.40;25.80
21275;DHT22;36472;52.170;20.884;2023-04-03T09:35:02;25.40;26.40
21275;DHT22;36472;52.170;20.884;2023-04-03T09:37:49;25.40;26.70
21275;DHT22;36472;52.170;20.884;2023-04-03T09:40:32;25.50;25.80
21275;DHT22;36472;52.170;20.884;2023-04-03T09:43:25;25.60;25.80
21275;DHT22;36472;52.170;20.884;2023-04-03T09:46:15;25.70;26.30
21275;DHT22;36472;52.170;20.884;2023-04-03T09:48:55;25.80;25.60
21275;DHT22;36472;52.170;20.884;2023-04-03T09:51:36;25.90;25.60
21275;DHT22;36472;52.170;20.884;2023-04-03T09:54:34;26.00;25.70
21275;DHT22;36472;52.170;20.884;2023-04-03T09:57:10;26.10;26.90
21275;DHT22;36472;52.170;20.884;2023-04-03T09:59:46;26.20;25.60
21275;DHT22;36472;52.170;20.884;2023-04-03T10:02:35;26.30;26.00
21275;DHT22;36472;52.170;20.884;2023-04-03T10:05:27;26.60;25.20
21275;DHT22;36472;52.170;20.884;2023-04-03T10:08:10;26.70;24.50
21275;DHT22;36472;52.170;20.884;2023-04-03T10:11:06;26.60;25.00
21275;DHT22;36472;52.170;20.884;2023-04-03T10:13:50;26.40;25.30
21275;DHT22;36472;52.170;20.884;2023-04-03T10:16:24;26.30;25.30
21275;DHT22;36472;52.170;20.884;2023-04-03T10:19:11;26.20;25.00
21275;DHT22;36472;52.170;20.884;2023-04-03T10:21:57;26.20;25.70
21275;DHT22;36472;52.170;20.884;2023-04-03T10:24:33;26.20;25.20
21275;DHT22;36472;52.170;20.884;2023-04-03T10:27:17;26.20;25.00
21275;DHT22;36472;52.170;20.884;2023-04-03T10:29:55;26.30;25.40
21275;DHT22;36472;52.170;20.884;2023-04-03T10:32:45;26.30;24.50
21275;DHT22;36472;52.170;20.884;2023-04-03T10:35:35;26.30;24.50
21275;DHT22;36472;52.170;20.884;2023-04-03T10:38:17;26.20;24.80
21275;DHT22;36472;52.170;20.884;2023-04-03T10:40:59;26.00;24.90
21275;DHT22;36472;52.170;20.884;2023-04-03T10:43:39;25.80;25.00
21275;DHT22;36472;52.170;20.884;2023-04-03T10:46:16;25.80;25.30
21275;DHT22;36472;52.170;20.884;2023-04-03T10:49:05;25.90;24.90
21275;DHT22;36472;52.170;20.884;2023-04-03T10:51:45;25.90;25.40
21275;DHT22;36472;52.170;20.884;2023-04-03T10:54:22;25.90;24.60
21275;DHT22;36472;52.170;20.884;2023-04-03T10:56:56;25.90;24.90
21275;DHT22;36472;52.170;20.884;2023-04-03T10:59:43;26.00;25.90
21275;DHT22;36472;52.170;20.884;2023-04-03T11:02:21;26.10;25.20
21275;DHT22;36472;52.170;20.884;2023-04-03T11:05:02;26.00;25.10
21275;DHT22;36472;52.170;20.884;2023-04-03T11:07:39;26.00;25.10
21275;DHT22;36472;52.170;20.884;2023-04-03T11:10:15;25.70;25.20
21275;DHT22;36472;52.170;20.884;2023-04-03T11:12:54;25.50;24.70
21275;DHT22;36472;52.170;20.884;2023-04-03T11:15:32;25.40;25.00
21275;DHT22;36472;52.170;20.884;2023-04-03T11:18:04;25.20;25.30
21275;DHT22;36472;52.170;20.884;2023-04-03T11:20:42;25.30;25.30
21275;DHT22;36472;52.170;20.884;2023-04-03T11:23:21;25.40;25.00
21275;DHT22;36472;52.170;20.884;2023-04-03T11:26:07;25.60;25.50
21275;DHT22;36472;52.170;20.884;2023-04-03T11:28:39;26.00;24.60
21275;DHT22;36472;52.170;20.884;2023-04-03T11:31:19;26.50;24.70
21275;DHT22;36472;52.170;20.884;2023-04-03T11:34:16;27.00;24.30
21275;DHT22;36472;52.170;20.884;2023-04-03T11:36:55;27.50;24.40
21275;DHT22;36472;52.170;20.884;2023-04-03T11:39:31;27.70;24.50
21275;DHT22;36472;52.170;20.884;2023-04-03T11:42:22;27.80;24.00
21275;DHT22;36472;52.170;20.884;2023-04-03T11:45:27;27.90;24.50
21275;DHT22;36472;52.170;20.884;2023-04-03T11:48:04;27.80;24.40
21275;DHT22;36472;52.170;20.884;2023-04-03T11:50:50;27.60;23.70
21275;DHT22;36472;52.170;20.884;2023-04-03T11:53:41;27.50;23.60
21275;DHT22;36472;52.170;20.884;2023-04-03T11:56:30;27.50;23.60
21275;DHT22;36472;52.170;20.884;2023-04-03T11:59:23;27.50;24.10
21275;DHT22;36472;52.170;20.884;2023-04-03T12:01:53;27.40;24.10
21275;DHT22;36472;52.170;20.884;2023-04-03T12:04:25;27.40;24.10
21275;DHT22;36472;52.170;20.884;2023-04-03T12:09:58;26.90;24.30
21275;DHT22;36472;52.170;20.884;2023-04-03T12:12:34;26.60;24.20
21275;DHT22;36472;52.170;20.884;2023-04-03T12:18:58;26.10;24.90
21275;DHT22;36472;52.170;20.884;2023-04-03T12:22:11;25.80;24.50
21275;DHT22;36472;52.170;20.884;2023-04-03T12:24:50;25.60;24.90
21275;DHT22;36472;52.170;20.884;2023-04-03T12:27:24;25.40;25.00
21275;DHT22;36472;52.170;20.884;2023-04-03T12:30:10;25.40;25.80
21275;DHT22;36472;52.170;20.884;2023-04-03T12:33:09;25.40;25.20
21275;DHT22;36472;52.170;20.884;2023-04-03T12:36:01;25.40;25.50
21275;DHT22;36472;52.170;20.884;2023-04-03T12:38:54;25.30;25.40
21275;DHT22;36472;52.170;20.884;2023-04-03T12:41:37;25.30;25.30
21275;DHT22;36472;52.170;20.884;2023-04-03T12:44:31;25.30;25.40
21275;DHT22;36472;52.170;20.884;2023-04-03T12:47:19;25.30;24.90
21275;DHT22;36472;52.170;20.884;2023-04-03T12:49:55;25.20;24.40
21275;DHT22;36472;52.170;20.884;2023-04-03T12:52:33;25.10;25.10
21275;DHT22;36472;52.170;20.884;2023-04-03T12:55:15;25.00;24.90
21275;DHT22;36472;52.170;20.884;2023-04-03T12:57:47;25.00;25.50
21275;DHT22;36472;52.170;20.884;2023-04-03T13:00:38;25.10;25.60
21275;DHT22;36472;52.170;20.884;2023-04-03T13:03:21;25.10;25.60
21275;DHT22;36472;52.170;20.884;2023-04-03T13:05:59;25.10;25.40
21275;DHT22;36472;52.170;20.884;2023-04-03T13:08:30;25.20;25.50
21275;DHT22;36472;52.170;20.884;2023-04-03T13:11:02;25.10;24.50
21275;DHT22;36472;52.170;20.884;2023-04-03T13:13:34;25.10;24.80
21275;DHT22;36472;52.170;20.884;2023-04-03T13:16:09;25.00;24.80
21275;DHT22;36472;52.170;20.884;2023-04-03T13:18:41;25.00;25.50
21275;DHT22;36472;52.170;20.884;2023-04-03T13:21:16;25.10;25.10
21275;DHT22;36472;52.170;20.884;2023-04-03T13:23:50;25.10;25.00
21275;DHT22;36472;52.170;20.884;2023-04-03T13:26:34;25.10;25.00
21275;DHT22;36472;52.170;20.884;2023-04-03T13:29:05;25.00;25.30
21275;DHT22;36472;52.170;20.884;2023-04-03T13:31:44;25.00;25.20
21275;DHT22;36472;52.170;20.884;2023-04-03T13:34:21;24.90;25.10
21275;DHT22;36472;52.170;20.884;2023-04-03T13:37:00;24.70;24.70
21275;DHT22;36472;52.170;20.884;2023-04-03T13:39:33;24.80;25.10
21275;DHT22;36472;52.170;20.884;2023-04-03T13:42:23;24.70;25.40
21275;DHT22;36472;52.170;20.884;2023-04-03T13:45:16;24.70;25.30
21275;DHT22;36472;52.170;20.884;2023-04-03T13:47:49;24.60;25.20
21275;DHT22;36472;52.170;20.884;2023-04-03T13:50:21;24.70;25.60
21275;DHT22;36472;52.170;20.884;2023-04-03T13:53:00;24.70;26.10
21275;DHT22;36472;52.170;20.884;2023-04-03T13:55:32;24.70;25.80
21275;DHT22;36472;52.170;20.884;2023-04-03T13:58:21;24.70;25.50
21275;DHT22;36472;52.170;20.884;2023-04-03T14:00:53;24.70;25.50
21275;DHT22;36472;52.170;20.884;2023-04-03T14:03:28;24.70;25.80
21275;DHT22;36472;52.170;20.884;2023-04-03T14:06:00;24.80;25.90
21275;DHT22;36472;52.170;20.884;2023-04-03T14:08:33;24.90;25.10
21275;DHT22;36472;52.170;20.884;2023-04-03T14:11:13;25.00;25.00
21275;DHT22;36472;52.170;20.884;2023-04-03T14:13:46;25.10;25.00
21275;DHT22;36472;52.170;20.884;2023-04-03T14:16:19;25.00;24.50
21275;DHT22;36472;52.170;20.884;2023-04-03T14:18:51;25.00;24.60
21275;DHT22;36472;52.170;20.884;2023-04-03T14:21:21;25.00;25.10
21275;DHT22;36472;52.170;20.884;2023-04-03T14:23:53;24.90;25.10
21275;DHT22;36472;52.170;20.884;2023-04-03T14:26:24;24.90;25.20
21275;DHT22;36472;52.170;20.884;2023-04-03T14:28:55;24.90;25.10
21275;DHT22;36472;52.170;20.884;2023-04-03T14:31:24;24.80;25.30
21275;DHT22;36472;52.170;20.884;2023-04-03T14:33:54;24.80;24.90
21275;DHT22;36472;52.170;20.884;2023-04-03T14:36:24;24.80;25.40
21275;DHT22;36472;52.170;20.884;2023-04-03T14:38:57;24.70;25.10
21275;DHT22;36472;52.170;20.884;2023-04-03T14:41:27;24.60;24.90
21275;DHT22;36472;52.170;20.884;2023-04-03T14:43:56;24.60;25.60
21275;DHT22;36472;52.170;20.884;2023-04-03T14:46:28;24.60;25.60
21275;DHT22;36472;52.170;20.884;2023-04-03T14:49:22;24.50;25.50
21275;DHT22;36472;52.170;20.884;2023-04-03T14:51:53;24.50;25.40
21275;DHT22;36472;52.170;20.884;2023-04-03T14:54:25;24.50;25.40
21275;DHT22;36472;52.170;20.884;2023-04-03T14:56:58;24.50;25.90
21275;DHT22;36472;52.170;20.884;2023-04-03T14:59:31;24.50;25.60
21275;DHT22;36472;52.170;20.884;2023-04-03T15:02:00;24.50;26.20
21275;DHT22;36472;52.170;20.884;2023-04-03T15:04:29;24.50;25.80
21275;DHT22;36472;52.170;20.884;2023-04-03T15:06:59;24.50;26.10
21275;DHT22;36472;52.170;20.884;2023-04-03T15:09:29;24.50;26.20
21275;DHT22;36472;52.170;20.884;2023-04-03T15:11:58;24.40;25.80
21275;DHT22;36472;52.170;20.884;2023-04-03T15:14:27;24.40;25.80
21275;DHT22;36472;52.170;20.884;2023-04-03T15:17:04;24.40;26.20
21275;DHT22;36472;52.170;20.884;2023-04-03T15:19:37;24.30;26.60
21275;DHT22;36472;52.170;20.884;2023-04-03T15:22:11;24.30;26.40
21275;DHT22;36472;52.170;20.884;2023-04-03T15:24:45;24.30;26.60
21275;DHT22;36472;52.170;20.884;2023-04-03T15:27:14;24.30;26.50
21275;DHT22;36472;52.170;20.884;2023-04-03T15:29:45;24.30;26.00
21275;DHT22;36472;52.170;20.884;2023-04-03T15:32:14;24.30;25.60
21275;DHT22;36472;52.170;20.884;2023-04-03T15:34:43;24.30;25.40
21275;DHT22;36472;52.170;20.884;2023-04-03T15:37:12;24.20;25.60
21275;DHT22;36472;52.170;20.884;2023-04-03T15:39:41;24.20;26.00
21275;DHT22;36472;52.170;20.884;2023-04-03T15:42:11;24.20;26.50
21275;DHT22;36472;52.170;20.884;2023-04-03T15:44:40;24.10;26.20
21275;DHT22;36472;52.170;20.884;2023-04-03T15:47:10;24.10;26.50
21275;DHT22;36472;52.170;20.884;2023-04-03T15:49:39;24.10;26.50
21275;DHT22;36472;52.170;20.884;2023-04-03T15:52:08;24.10;26.40
21275;DHT22;36472;52.170;20.884;2023-04-03T15:54:38;24.10;26.30
21275;DHT22;36472;52.170;20.884;2023-04-03T15:57:07;24.10;26.30
21275;DHT22;36472;52.170;20.884;2023-04-03T15:59:37;24.10;26.40
21275;DHT22;36472;52.170;20.884;2023-04-03T16:02:08;24.10;26.20
21275;DHT22;36472;52.170;20.884;2023-04-03T16:04:41;24.10;26.70
21275;DHT22;36472;52.170;20.884;2023-04-03T16:07:10;24.10;26.50